Time;durP1;ratioP1;P1;durP2;ratioP2;P2;SDS_P1;SDS_P2;PMS_P1;PMS_P2;Temp;Humidity;BMP_temperature;BMP_pressure;BME280_temperature;BME280_humidity;BME280_pressure;Samples;Min_cycle;Max_cycle;Signal;HPM_P1;HPM_P2
2022/10/31 00:01:36;;;;;;;30.45;17.00;;;11.90;99.90;;;;;;5137683;27;20038;-68
2022/10/31 00:04:03;;;;;;;34.47;17.48;;;11.90;99.90;;;;;;5135049;27;20039;-68
2022/10/31 00:06:29;;;;;;;36.03;17.48;;;11.90;99.90;;;;;;5137198;27;20042;-68
2022/10/31 00:08:58;;;;;;;30.23;16.30;;;11.90;99.90;;;;;;5155923;27;20387;-68
2022/10/31 00:11:24;;;;;;;30.90;16.05;;;11.90;99.90;;;;;;5155697;27;20057;-68
2022/10/31 00:13:50;;;;;;;30.75;15.25;;;11.90;99.90;;;;;;5137220;27;20517;-69
2022/10/31 00:16:21;;;;;;;30.40;15.65;;;11.90;99.90;;;;;;5137056;27;20126;-68
2022/10/31 00:19:02;;;;;;;37.45;15.65;;;11.90;99.90;;;;;;5137132;27;20459;-68
2022/10/31 00:21:29;;;;;;;33.22;15.60;;;11.90;99.90;;;;;;5137410;27;20379;-69
2022/10/31 00:23:55;;;;;;;23.60;13.90;;;11.80;99.90;;;;;;5119782;27;20038;-68
2022/10/31 00:26:21;;;;;;;25.58;14.20;;;11.90;99.90;;;;;;5155494;27;20053;-68
2022/10/31 00:28:46;;;;;;;23.73;13.57;;;11.80;99.90;;;;;;5137102;27;20133;-68
2022/10/31 00:31:13;;;;;;;27.50;15.50;;;11.80;99.90;;;;;;5155265;27;20038;-68
2022/10/31 00:33:40;;;;;;;26.63;14.48;;;11.80;99.90;;;;;;5134668;27;20043;-68
2022/10/31 00:36:07;;;;;;;29.98;14.32;;;11.80;99.90;;;;;;5136741;27;20495;-69
2022/10/31 00:38:33;;;;;;;30.88;14.57;;;11.80;99.90;;;;;;5155114;27;20082;-68
2022/10/31 00:40:59;;;;;;;25.90;14.13;;;11.80;99.90;;;;;;5155151;27;20118;-68
2022/10/31 00:43:24;;;;;;;24.65;14.45;;;11.80;99.90;;;;;;5155350;27;20122;-69
2022/10/31 00:45:50;;;;;;;27.33;14.15;;;11.80;99.90;;;;;;5155369;27;20090;-69
2022/10/31 00:48:16;;;;;;;29.02;14.95;;;11.80;99.90;;;;;;5136652;27;20427;-68
2022/10/31 00:50:42;;;;;;;27.42;14.63;;;11.80;99.90;;;;;;5155131;27;20077;-68
2022/10/31 00:53:08;;;;;;;22.80;13.98;;;11.80;99.90;;;;;;5154990;27;20489;-69
2022/10/31 00:55:33;;;;;;;27.00;14.40;;;11.90;99.90;;;;;;5136455;27;20035;-68
2022/10/31 00:57:59;;;;;;;22.50;13.60;;;11.90;99.90;;;;;;5155146;27;20035;-68
2022/10/31 01:00:25;;;;;;;22.10;13.35;;;11.90;99.90;;;;;;5154927;27;20034;-68
2022/10/31 01:02:51;;;;;;;23.33;13.55;;;11.80;99.90;;;;;;5152622;27;20039;-68
2022/10/31 01:05:17;;;;;;;25.65;13.45;;;11.80;99.90;;;;;;5154920;27;20073;-68
2022/10/31 01:07:43;;;;;;;29.30;14.98;;;11.90;99.90;;;;;;5119241;27;20069;-68
2022/10/31 01:10:10;;;;;;;26.92;14.35;;;11.90;99.90;;;;;;5136425;27;20110;-68
2022/10/31 01:12:47;;;;;;;24.83;14.77;;;11.90;99.90;;;;;;5136433;27;20043;-68
2022/10/31 01:15:16;;;;;;;26.35;13.63;;;11.90;99.90;;;;;;5119308;27;20073;-68
2022/10/31 01:17:42;;;;;;;21.63;14.23;;;11.90;99.90;;;;;;5136384;27;20099;-68
2022/10/31 01:20:09;;;;;;;23.48;13.80;;;11.90;99.90;;;;;;5119109;27;20492;-68
2022/10/31 01:22:35;;;;;;;24.38;14.77;;;11.80;99.90;;;;;;5154659;27;20041;-68
2022/10/31 01:25:00;;;;;;;23.58;13.52;;;11.80;99.90;;;;;;5154930;27;20121;-68
2022/10/31 01:27:26;;;;;;;22.17;13.52;;;11.70;99.90;;;;;;5154729;27;20122;-68
2022/10/31 01:29:52;;;;;;;20.83;12.88;;;11.70;99.90;;;;;;5135881;27;20035;-69
2022/10/31 01:32:18;;;;;;;22.98;14.10;;;11.70;99.90;;;;;;5134085;27;20034;-68
2022/10/31 01:34:43;;;;;;;22.88;13.75;;;11.70;99.90;;;;;;5136335;27;20050;-68
2022/10/31 01:37:09;;;;;;;25.13;12.70;;;11.60;99.90;;;;;;5154204;27;20058;-68
2022/10/31 01:39:35;;;;;;;24.35;13.60;;;11.60;99.90;;;;;;5154735;27;20042;-68
2022/10/31 01:42:00;;;;;;;23.45;14.07;;;11.60;99.90;;;;;;5154655;27;20043;-68
2022/10/31 01:44:26;;;;;;;26.58;14.15;;;11.60;99.90;;;;;;5136014;27;20050;-68
2022/10/31 01:46:59;;;;;;;20.40;13.15;;;11.60;99.90;;;;;;5154487;27;20046;-68
2022/10/31 01:49:37;;;;;;;22.48;13.10;;;11.50;99.90;;;;;;5154479;27;20043;-68
2022/10/31 01:52:12;;;;;;;25.65;14.00;;;11.50;99.90;;;;;;5118546;27;20195;-68
2022/10/31 01:54:42;;;;;;;22.88;12.07;;;11.50;99.90;;;;;;5136135;27;20086;-68
2022/10/31 01:57:12;;;;;;;17.83;11.85;;;11.40;99.90;;;;;;5119067;27;20489;-69
2022/10/31 01:59:43;;;;;;;21.42;12.88;;;11.40;99.90;;;;;;5118730;27;20176;-69
2022/10/31 02:02:10;;;;;;;23.50;11.48;;;11.40;99.90;;;;;;5151983;27;20826;-69
2022/10/31 02:04:36;;;;;;;20.80;11.93;;;11.30;99.90;;;;;;5135814;27;20035;-68
2022/10/31 02:07:14;;;;;;;20.77;11.90;;;11.30;99.90;;;;;;5154395;27;20362;-68
2022/10/31 02:09:40;;;;;;;23.23;13.20;;;11.30;99.90;;;;;;5154361;27;20035;-68
2022/10/31 02:12:09;;;;;;;25.63;13.27;;;11.30;99.90;;;;;;5154669;27;20088;-68
2022/10/31 02:14:36;;;;;;;21.98;13.15;;;11.20;99.90;;;;;;5139596;27;20118;-68
2022/10/31 02:17:01;;;;;;;20.42;13.27;;;11.20;99.90;;;;;;5158338;27;20038;-68
2022/10/31 02:19:33;;;;;;;22.45;13.70;;;11.20;99.90;;;;;;5139379;27;20031;-68
2022/10/31 02:22:14;;;;;;;20.13;11.98;;;11.20;99.90;;;;;;5158017;27;20043;-69
2022/10/31 02:24:42;;;;;;;;;;;11.20;99.90;;;;;;5158384;27;20100;-68
2022/10/31 02:27:23;;;;;;;22.52;13.70;;;11.20;99.90;;;;;;5157857;27;20315;-68
2022/10/31 02:30:12;;;;;;;23.58;14.25;;;11.10;99.90;;;;;;5139397;27;20096;-68
2022/10/31 02:32:43;;;;;;;19.60;13.70;;;11.20;99.90;;;;;;5137266;27;20039;-68
2022/10/31 02:35:44;;;;;;;22.38;13.80;;;11.10;99.90;;;;;;5122111;27;20080;-68
2022/10/31 02:38:24;;;;;;;26.08;13.48;;;11.10;99.90;;;;;;5139119;27;20111;-68
2022/10/31 02:41:08;;;;;;;24.35;14.55;;;11.10;99.90;;;;;;5139384;27;20047;-68
2022/10/31 02:43:47;;;;;;;25.58;14.77;;;11.10;99.90;;;;;;5157606;27;20039;-68
2022/10/31 02:46:25;;;;;;;22.80;14.13;;;11.00;99.90;;;;;;5157419;27;20050;-69
2022/10/31 02:48:55;;;;;;;28.52;15.98;;;11.00;99.90;;;;;;5138932;27;20043;-68
2022/10/31 02:51:21;;;;;;;24.45;13.75;;;10.90;99.90;;;;;;5138894;27;20074;-69
2022/10/31 02:53:46;;;;;;;27.95;14.63;;;11.00;99.90;;;;;;5138773;27;20081;-69
2022/10/31 02:56:14;;;;;;;22.92;14.57;;;10.90;99.90;;;;;;5157380;27;20038;-68
2022/10/31 02:58:54;;;;;;;25.38;14.52;;;10.90;99.90;;;;;;5157218;27;20396;-68
2022/10/31 03:01:20;;;;;;;;;;;10.90;99.90;;;;;;5157903;27;20051;-68
2022/10/31 03:03:59;;;;;;;22.23;14.45;;;10.80;99.90;;;;;;5155028;27;19937;-69
2022/10/31 03:06:54;;;;;;;25.15;14.23;;;10.70;99.90;;;;;;5157066;27;20043;-68
2022/10/31 03:09:29;;;;;;;26.13;14.98;;;10.70;99.90;;;;;;5132559;27;20447;-68
2022/10/31 03:12:00;;;;;;;24.55;15.52;;;10.60;99.90;;;;;;5138501;27;20084;-68
2022/10/31 03:14:43;;;;;;;30.63;16.50;;;10.50;99.90;;;;;;5157056;27;20042;-68
2022/10/31 03:17:20;;;;;;;29.58;17.05;;;10.50;99.90;;;;;;5138513;27;20043;-68
2022/10/31 03:19:49;;;;;;;28.48;17.13;;;10.50;99.90;;;;;;5138548;27;20038;-68
2022/10/31 03:22:25;;;;;;;26.25;17.30;;;10.50;99.90;;;;;;5156955;27;20087;-67
2022/10/31 03:24:52;;;;;;;30.70;18.73;;;10.50;99.90;;;;;;5138165;27;20050;-67
2022/10/31 03:27:23;;;;;;;26.38;17.45;;;10.50;99.90;;;;;;5138499;27;20087;-67
2022/10/31 03:29:51;;;;;;;28.25;17.15;;;10.40;99.90;;;;;;5138277;27;20364;-69
2022/10/31 03:32:29;;;;;;;28.63;18.45;;;10.50;99.90;;;;;;5154567;27;20038;-68
2022/10/31 03:34:57;;;;;;;29.73;18.67;;;10.50;99.90;;;;;;5137958;27;20118;-68
2022/10/31 03:37:26;;;;;;;27.17;18.50;;;10.50;99.90;;;;;;5120686;27;20082;-67
2022/10/31 03:39:54;;;;;;;25.58;17.65;;;10.50;99.90;;;;;;5137913;27;20054;-69
2022/10/31 03:42:25;;;;;;;28.35;18.67;;;10.50;99.90;;;;;;5156237;27;20026;-68
2022/10/31 03:45:15;;;;;;;29.67;18.92;;;10.50;99.90;;;;;;5156496;27;20087;-68
2022/10/31 03:47:43;;;;;;;33.45;19.45;;;10.40;99.90;;;;;;5156390;27;20092;-67
2022/10/31 03:50:12;;;;;;;28.90;18.83;;;10.40;99.90;;;;;;5120670;27;20078;-67
2022/10/31 03:52:47;;;;;;;34.03;19.67;;;10.40;99.90;;;;;;5156198;27;20062;-67
2022/10/31 03:55:30;;;;;;;35.35;20.20;;;10.40;99.90;;;;;;5120326;27;20038;-68
2022/10/31 03:58:09;;;;;;;32.05;18.98;;;10.40;99.90;;;;;;5137528;27;20034;-68
2022/10/31 04:00:37;;;;;;;34.03;19.85;;;10.40;99.90;;;;;;5120625;27;20103;-68
2022/10/31 04:03:11;;;;;;;32.00;20.50;;;10.40;99.90;;;;;;5118088;27;20118;-69
2022/10/31 04:05:38;;;;;;;35.88;20.40;;;10.40;99.90;;;;;;5137427;27;20078;-68
2022/10/31 04:08:10;;;;;;;33.60;19.48;;;10.40;99.90;;;;;;5155966;27;20042;-67
2022/10/31 04:10:38;;;;;;;35.08;20.00;;;10.40;99.90;;;;;;5137172;27;20049;-67
2022/10/31 04:13:10;;;;;;;30.10;18.70;;;10.30;99.90;;;;;;5137440;27;20087;-67
2022/10/31 04:15:38;;;;;;;30.02;18.65;;;10.30;99.90;;;;;;5137215;27;20039;-67
2022/10/31 04:18:05;;;;;;;31.08;18.48;;;10.20;99.90;;;;;;5137212;27;20045;-67
2022/10/31 04:20:33;;;;;;;30.73;19.40;;;10.10;99.90;;;;;;5119791;27;20121;-67
2022/10/31 04:23:00;;;;;;;36.10;20.30;;;10.10;99.90;;;;;;5155779;27;20459;-67
2022/10/31 04:25:26;;;;;;;36.22;19.10;;;10.10;99.90;;;;;;5137066;27;20121;-67
2022/10/31 04:27:52;;;;;;;33.17;20.52;;;10.00;99.90;;;;;;5155584;27;20118;-67
2022/10/31 04:30:18;;;;;;;42.42;22.25;;;10.00;99.90;;;;;;5136748;27;20056;-67
2022/10/31 04:32:43;;;;;;;34.83;21.80;;;9.90;99.90;;;;;;5153435;27;20034;-67
2022/10/31 04:35:09;;;;;;;44.80;24.88;;;9.90;99.90;;;;;;5155153;27;20034;-67
2022/10/31 04:37:35;;;;;;;44.40;22.83;;;9.90;99.90;;;;;;5136890;27;20050;-67
2022/10/31 04:40:00;;;;;;;33.78;20.08;;;9.90;99.90;;;;;;5155366;27;20042;-67
2022/10/31 04:42:29;;;;;;;31.17;18.00;;;10.00;99.90;;;;;;5137008;27;20038;-67
2022/10/31 04:44:56;;;;;;;41.55;19.88;;;9.90;99.90;;;;;;5136686;27;20039;-67
2022/10/31 04:47:22;;;;;;;41.15;21.75;;;9.90;99.90;;;;;;5119505;27;20360;-69
2022/10/31 04:49:48;;;;;;;40.08;24.02;;;9.90;99.90;;;;;;5155325;27;20134;-67
2022/10/31 04:52:14;;;;;;;52.10;25.98;;;9.90;99.90;;;;;;5136504;27;20042;-67
2022/10/31 04:54:39;;;;;;;46.75;24.30;;;9.90;99.90;;;;;;5136497;27;20113;-67
2022/10/31 04:57:05;;;;;;;42.50;20.95;;;9.90;99.90;;;;;;5136420;27;20122;-67
2022/10/31 04:59:31;;;;;;;35.50;20.13;;;9.90;99.90;;;;;;5136418;27;20030;-67
2022/10/31 05:01:56;;;;;;;40.88;20.50;;;9.80;99.90;;;;;;5134918;27;20118;-68
2022/10/31 05:04:22;;;;;;;26.48;17.42;;;9.80;99.90;;;;;;5135764;27;20039;-67
2022/10/31 05:06:48;;;;;;;54.17;20.10;;;9.70;99.90;;;;;;5136594;27;20077;-67
2022/10/31 05:09:14;;;;;;;71.40;26.02;;;9.60;99.90;;;;;;5154810;27;20035;-67
2022/10/31 05:11:39;;;;;;;44.42;21.58;;;9.50;99.90;;;;;;5136255;27;20035;-67
2022/10/31 05:14:05;;;;;;;44.08;20.63;;;9.40;99.90;;;;;;5136309;27;20034;-67
2022/10/31 05:16:31;;;;;;;25.90;15.55;;;9.40;99.90;;;;;;5119116;27;20058;-67
2022/10/31 05:18:56;;;;;;;59.63;22.08;;;9.30;99.90;;;;;;5154904;27;20087;-67
2022/10/31 05:21:22;;;;;;;56.60;23.25;;;9.30;99.90;;;;;;5136061;27;20042;-67
2022/10/31 05:23:48;;;;;;;35.90;18.92;;;9.30;99.90;;;;;;5154889;27;20043;-67
2022/10/31 05:26:14;;;;;;;41.53;23.02;;;9.30;99.90;;;;;;5136242;27;20379;-67
2022/10/31 05:28:39;;;;;;;52.03;24.50;;;9.40;99.90;;;;;;5154639;27;20125;-67
2022/10/31 05:31:05;;;;;;;38.97;21.52;;;9.30;99.90;;;;;;5154570;27;20479;-67
2022/10/31 05:33:31;;;;;;;52.05;24.30;;;9.40;99.90;;;;;;5134087;27;20068;-67
2022/10/31 05:35:56;;;;;;;185.57;35.30;;;9.30;99.90;;;;;;5154567;27;20474;-66
2022/10/31 05:38:22;;;;;;;42.40;22.13;;;9.30;99.90;;;;;;5118802;27;20042;-66
2022/10/31 05:40:48;;;;;;;53.67;25.10;;;9.30;99.90;;;;;;5136359;27;20089;-66
2022/10/31 05:43:14;;;;;;;77.75;31.17;;;9.30;99.90;;;;;;5154486;27;20035;-66
2022/10/31 05:45:39;;;;;;;437.55;44.60;;;9.30;99.90;;;;;;5136095;27;20031;-67
2022/10/31 05:48:05;;;;;;;491.05;49.63;;;9.30;99.90;;;;;;5156629;27;20426;-66
2022/10/31 05:50:31;;;;;;;333.83;44.83;;;9.20;99.90;;;;;;5158473;27;20121;-66
2022/10/31 05:53:00;;;;;;;167.50;30.63;;;9.30;99.90;;;;;;5140238;27;20038;-66
2022/10/31 05:55:26;;;;;;;471.00;67.10;;;9.20;99.90;;;;;;5140200;27;20090;-66
2022/10/31 05:57:53;;;;;;;362.73;56.85;;;9.20;99.90;;;;;;5139880;27;20039;-66
2022/10/31 06:00:20;;;;;;;105.53;34.65;;;9.20;99.90;;;;;;5158688;27;20050;-66
2022/10/31 06:02:45;;;;;;;266.83;48.20;;;9.30;99.90;;;;;;5156338;27;20050;-66
2022/10/31 06:05:12;;;;;;;300.13;52.47;;;9.30;99.90;;;;;;5140035;27;20035;-66
2022/10/31 06:07:38;;;;;;;244.35;44.92;;;9.30;99.90;;;;;;5139823;27;20134;-66
2022/10/31 06:10:06;;;;;;;600.67;86.63;;;9.30;99.90;;;;;;5139548;27;20088;-67
2022/10/31 06:12:37;;;;;;;101.53;33.25;;;9.30;99.90;;;;;;5158142;27;20113;-66
2022/10/31 06:15:06;;;;;;;304.20;57.28;;;9.20;99.90;;;;;;5158361;27;20038;-67
2022/10/31 06:17:36;;;;;;;235.73;49.08;;;9.20;99.90;;;;;;5158268;27;20042;-66
2022/10/31 06:20:03;;;;;;;376.83;63.15;;;9.20;99.90;;;;;;5139833;27;20034;-66
2022/10/31 06:22:29;;;;;;;499.92;72.80;;;9.20;99.90;;;;;;5157945;27;20402;-66
2022/10/31 06:24:54;;;;;;;321.30;53.17;;;9.20;99.90;;;;;;5139550;27;20048;-66
2022/10/31 06:27:20;;;;;;;580.20;83.78;;;9.20;99.90;;;;;;5139578;27;20077;-66
2022/10/31 06:29:46;;;;;;;316.15;50.63;;;9.00;99.90;;;;;;5139268;27;20096;-66
2022/10/31 06:32:12;;;;;;;178.20;34.67;;;9.00;99.90;;;;;;5155412;27;20104;-67
2022/10/31 06:34:42;;;;;;;250.32;45.88;;;8.90;99.90;;;;;;5139871;27;20037;-66
2022/10/31 06:37:09;;;;;;;242.77;49.88;;;8.90;99.90;;;;;;5139014;27;20053;-66
2022/10/31 06:39:35;;;;;;;214.93;48.42;;;9.00;99.90;;;;;;5139042;27;20215;-66
2022/10/31 06:42:01;;;;;;;337.75;62.58;;;9.00;99.90;;;;;;5121881;27;20142;-65
2022/10/31 06:44:27;;;;;;;232.65;52.67;;;9.00;99.90;;;;;;5138982;27;20115;-65
2022/10/31 06:46:53;;;;;;;112.35;38.85;;;9.10;99.90;;;;;;5157647;27;20045;-65
2022/10/31 06:49:19;;;;;;;122.25;40.13;;;9.10;99.90;;;;;;5139164;27;20478;-65
2022/10/31 06:51:48;;;;;;;161.55;44.50;;;9.20;99.90;;;;;;5138717;27;20451;-65
2022/10/31 06:54:13;;;;;;;175.75;42.53;;;9.20;99.90;;;;;;5121610;27;20039;-65
2022/10/31 06:56:39;;;;;;;212.15;49.53;;;9.20;99.90;;;;;;5138703;27;20034;-65
2022/10/31 06:59:05;;;;;;;87.70;34.40;;;9.20;99.90;;;;;;5138357;27;20125;-65
2022/10/31 07:01:30;;;;;;;67.55;30.55;;;9.20;99.90;;;;;;5138964;27;20035;-65
2022/10/31 07:03:56;;;;;;;97.22;35.65;;;9.30;99.90;;;;;;5136550;27;20049;-66
2022/10/31 07:06:22;;;;;;;120.78;37.50;;;9.30;99.90;;;;;;5121628;27;20046;-65
2022/10/31 07:08:48;;;;;;;126.47;40.35;;;9.30;99.90;;;;;;5138687;27;20078;-65
2022/10/31 07:11:14;;;;;;;73.80;31.80;;;9.30;99.90;;;;;;5138524;27;20047;-65
2022/10/31 07:13:40;;;;;;;69.78;31.92;;;9.30;99.90;;;;;;5157112;27;20027;-65
2022/10/31 07:16:06;;;;;;;66.80;31.30;;;9.30;99.90;;;;;;5138672;27;20042;-65
2022/10/31 07:18:33;;;;;;;62.97;29.00;;;9.30;99.90;;;;;;5156820;27;20076;-65
2022/10/31 07:20:59;;;;;;;54.08;26.42;;;9.30;99.90;;;;;;5138161;27;20042;-65
2022/10/31 07:23:25;;;;;;;61.78;28.73;;;9.40;99.90;;;;;;5138414;27;20111;-66
2022/10/31 07:25:57;;;;;;;79.57;33.70;;;9.40;99.90;;;;;;5157048;27;20041;-65
2022/10/31 07:28:23;;;;;;;73.78;30.17;;;9.50;99.90;;;;;;5156841;27;20037;-65
2022/10/31 07:30:51;;;;;;;69.80;29.00;;;9.50;99.90;;;;;;5156628;27;20043;-65
2022/10/31 07:33:16;;;;;;;57.65;27.17;;;9.50;99.90;;;;;;5135891;27;20383;-65
2022/10/31 07:35:42;;;;;;;52.33;25.95;;;9.70;99.90;;;;;;5137998;27;20035;-65
2022/10/31 07:38:13;;;;;;;46.20;24.98;;;9.70;99.90;;;;;;5137675;27;20086;-65
2022/10/31 07:40:39;;;;;;;46.33;24.52;;;9.80;99.90;;;;;;5156621;27;20113;-65
2022/10/31 07:43:05;;;;;;;47.05;25.70;;;9.90;99.90;;;;;;5138138;27;20103;-65
2022/10/31 07:45:31;;;;;;;46.78;24.80;;;10.00;99.90;;;;;;5147636;27;20121;-65
2022/10/31 07:47:57;;;;;;;46.75;24.27;;;10.10;99.90;;;;;;5156230;27;20488;-65
2022/10/31 07:50:27;;;;;;;38.33;22.40;;;10.10;99.90;;;;;;5156063;27;20094;-65
2022/10/31 07:53:03;;;;;;;44.28;22.02;;;10.20;99.90;;;;;;5156391;27;20090;-65
2022/10/31 07:55:30;;;;;;;46.08;23.38;;;10.30;99.90;;;;;;5154814;27;20518;-65
2022/10/31 07:58:06;;;;;;;35.50;21.70;;;10.50;99.90;;;;;;5154829;27;20042;-65
2022/10/31 08:00:33;;;;;;;30.05;20.23;;;10.60;99.90;;;;;;5154773;27;20050;-66
2022/10/31 08:03:00;;;;;;;34.40;18.27;;;10.70;99.90;;;;;;5152406;27;20070;-66
2022/10/31 08:05:27;;;;;;;33.83;18.95;;;10.70;99.90;;;;;;5154968;27;20070;-66
2022/10/31 08:07:52;;;;;;;27.25;17.65;;;10.80;99.90;;;;;;5155928;27;20049;-65
2022/10/31 08:10:19;;;;;;;29.27;19.20;;;10.90;99.90;;;;;;5147049;27;20043;-66
2022/10/31 08:12:44;;;;;;;27.10;17.23;;;11.00;99.90;;;;;;5118666;27;20491;-66
2022/10/31 08:15:10;;;;;;;30.23;18.45;;;11.10;99.90;;;;;;5120013;27;20123;-66
2022/10/31 08:17:37;;;;;;;31.20;19.17;;;11.20;99.90;;;;;;5155660;27;20035;-67
2022/10/31 08:20:04;;;;;;;30.23;18.17;;;11.20;99.90;;;;;;5155933;27;20106;-67
2022/10/31 08:22:29;;;;;;;31.17;18.13;;;11.30;99.90;;;;;;5137291;27;20038;-67
2022/10/31 08:24:55;;;;;;;27.58;17.58;;;11.40;99.90;;;;;;5136899;27;20395;-68
2022/10/31 08:27:21;;;;;;;27.13;17.10;;;11.50;99.90;;;;;;5155596;27;20027;-67
2022/10/31 08:29:46;;;;;;;29.75;18.33;;;11.70;99.90;;;;;;5137003;27;20041;-66
2022/10/31 08:32:13;;;;;;;29.92;17.55;;;11.80;99.90;;;;;;5153132;27;20035;-67
2022/10/31 08:34:38;;;;;;;25.90;15.80;;;12.10;99.90;;;;;;5155338;27;20046;-67
2022/10/31 08:37:04;;;;;;;24.80;17.35;;;12.30;99.90;;;;;;5136698;27;20038;-68
2022/10/31 08:39:30;;;;;;;25.33;16.10;;;12.50;99.90;;;;;;5136869;27;20054;-67
2022/10/31 08:41:55;;;;;;;21.48;14.68;;;12.60;99.90;;;;;;5137037;27;20035;-68
2022/10/31 08:44:21;;;;;;;23.27;14.93;;;12.80;99.90;;;;;;5136611;27;20046;-67
2022/10/31 08:46:47;;;;;;;19.92;14.35;;;13.00;99.90;;;;;;5155092;27;20117;-68
2022/10/31 08:49:13;;;;;;;21.83;13.25;;;13.30;99.90;;;;;;5136589;27;20062;-68
2022/10/31 08:51:38;;;;;;;19.48;13.43;;;13.50;99.90;;;;;;5136457;27;20042;-67
2022/10/31 08:54:04;;;;;;;19.75;11.93;;;13.90;99.90;;;;;;5136580;27;20042;-67
2022/10/31 08:56:30;;;;;;;25.40;12.45;;;14.30;99.90;;;;;;5119397;27;20046;-67
2022/10/31 08:58:56;;;;;;;18.83;12.20;;;15.00;99.90;;;;;;5119246;27;20125;-68
2022/10/31 09:01:21;;;;;;;16.15;11.15;;;15.80;99.90;;;;;;5119596;27;20038;-67
2022/10/31 09:03:47;;;;;;;14.85;10.57;;;16.60;99.90;;;;;;5134434;27;20042;-68
2022/10/31 09:06:13;;;;;;;16.80;10.60;;;17.10;99.90;;;;;;5119581;27;20383;-68
2022/10/31 09:08:39;;;;;;;13.90;10.13;;;17.50;99.90;;;;;;5135773;27;20050;-68
2022/10/31 09:11:06;;;;;;;14.90;10.38;;;17.90;99.90;;;;;;5154609;27;20034;-68
2022/10/31 09:13:32;;;;;;;14.40;11.10;;;18.40;99.90;;;;;;5136507;27;20395;-68
2022/10/31 09:15:58;;;;;;;15.70;10.88;;;18.70;99.90;;;;;;5154754;27;20038;-69
2022/10/31 09:18:27;;;;;;;11.77;9.10;;;18.90;99.90;;;;;;5136430;27;20151;-68
2022/10/31 09:20:52;;;;;;;14.88;10.75;;;18.70;99.90;;;;;;5154836;27;20158;-68
2022/10/31 09:23:22;;;;;;;13.48;10.45;;;18.20;99.90;;;;;;5154602;27;20542;-68
2022/10/31 09:25:50;;;;;;;16.45;11.00;;;17.60;99.90;;;;;;5136285;27;20046;-68
2022/10/31 09:28:34;;;;;;;17.10;11.68;;;17.30;99.90;;;;;;5154506;27;20039;-68
2022/10/31 09:31:00;;;;;;;19.58;12.50;;;16.80;99.90;;;;;;5154569;27;20144;-68
2022/10/31 09:33:25;;;;;;;20.33;13.20;;;16.40;99.90;;;;;;5134041;27;20126;-68
2022/10/31 09:39:16;;;;;;;19.48;13.88;;;15.60;99.90;;;;;;5097291;28;20051;-68
2022/10/31 09:42:09;;;;;;;19.02;15.38;;;15.50;99.90;;;;;;5094932;28;20450;-68
2022/10/31 09:44:55;;;;;;;19.50;14.48;;;15.60;99.90;;;;;;5113261;28;20065;-68
2022/10/31 09:47:33;;;;;;;20.73;15.07;;;15.90;99.90;;;;;;5113119;28;20050;-69
2022/10/31 09:50:17;;;;;;;20.70;15.65;;;16.50;99.90;;;;;;5111984;28;20127;-68
2022/10/31 09:52:57;;;;;;;18.83;15.32;;;16.80;99.90;;;;;;5112188;28;20108;-68
2022/10/31 09:55:44;;;;;;;22.73;15.70;;;17.20;99.90;;;;;;5111898;28;20046;-68
2022/10/31 09:58:20;;;;;;;20.55;16.23;;;17.30;99.90;;;;;;5111820;28;20040;-68
2022/10/31 10:00:47;;;;;;;20.23;16.23;;;17.40;99.90;;;;;;5111735;28;20046;-69
2022/10/31 10:03:28;;;;;;;21.83;16.25;;;17.60;99.90;;;;;;5109316;28;20376;-68
2022/10/31 10:06:13;;;;;;;21.98;16.58;;;17.90;99.90;;;;;;5110972;28;20042;-68
2022/10/31 10:08:40;;;;;;;21.08;15.52;;;18.30;99.90;;;;;;5111548;28;20415;-68
2022/10/31 10:11:36;;;;;;;23.65;17.70;;;18.20;99.90;;;;;;5094165;28;20035;-68
2022/10/31 10:14:13;;;;;;;21.60;15.85;;;18.00;99.90;;;;;;5112876;28;20040;-68
2022/10/31 10:17:18;;;;;;;23.67;16.52;;;17.80;99.90;;;;;;5077677;28;20047;-68
2022/10/31 10:19:52;;;;;;;23.52;17.45;;;17.40;99.90;;;;;;5112954;28;20036;-68
2022/10/31 10:23:10;;;;;;;23.20;16.88;;;16.90;99.90;;;;;;5094732;28;20172;-68
2022/10/31 10:25:40;;;;;;;20.48;15.13;;;16.50;99.90;;;;;;5112937;28;20088;-68
2022/10/31 10:28:27;;;;;;;21.67;15.90;;;16.90;99.90;;;;;;5112843;28;20040;-68
2022/10/31 10:30:59;;;;;;;20.58;15.48;;;17.90;99.90;;;;;;5094530;28;20037;-68
2022/10/31 10:33:39;;;;;;;18.80;15.40;;;18.60;99.90;;;;;;5093165;28;20042;-68
2022/10/31 10:36:08;;;;;;;;;;;19.00;99.90;;;;;;5116842;28;20042;-69
2022/10/31 10:38:45;;;;;;;20.25;15.55;;;19.00;99.90;;;;;;5097897;28;19916;-68
2022/10/31 10:41:22;;;;;;;20.20;14.55;;;19.00;99.90;;;;;;5116149;28;20059;-69
2022/10/31 10:43:54;;;;;;;19.80;15.80;;;19.20;99.90;;;;;;5080970;28;20135;-68
2022/10/31 10:49:50;;;;;;;21.67;15.52;;;19.40;99.90;;;;;;5072817;28;20052;-68
2022/10/31 10:52:29;;;;;;;25.70;16.83;;;18.70;99.90;;;;;;5096181;28;20054;-69
2022/10/31 10:55:39;;;;;;;21.33;17.17;;;18.00;99.90;;;;;;5088265;28;20071;-69
2022/10/31 10:58:09;;;;;;;24.52;17.55;;;17.50;99.90;;;;;;5087464;28;20047;-69
2022/10/31 11:00:46;;;;;;;;;;;17.10;99.90;;;;;;5097280;28;20036;-68
2022/10/31 11:03:13;;;;;;;23.65;16.40;;;16.80;99.90;;;;;;5074534;28;19923;-68
2022/10/31 11:05:48;;;;;;;23.38;15.75;;;16.90;99.90;;;;;;5092141;28;20047;-68
2022/10/31 11:08:28;;;;;;;22.17;15.52;;;16.90;99.90;;;;;;5097171;28;20507;-68
2022/10/31 11:11:03;;;;;;;25.42;14.80;;;16.70;99.90;;;;;;5096726;28;20032;-68
2022/10/31 11:13:30;;;;;;;28.13;16.50;;;16.50;99.90;;;;;;5080381;28;20055;-68
2022/10/31 11:16:12;;;;;;;27.52;16.33;;;16.30;99.90;;;;;;5096982;28;20047;-68
2022/10/31 11:18:42;;;;;;;23.10;15.57;;;16.10;99.90;;;;;;5096929;28;20369;-67
2022/10/31 11:21:24;;;;;;;22.95;14.82;;;16.10;99.90;;;;;;5096930;28;20051;-67
2022/10/31 11:24:01;;;;;;;22.90;14.47;;;16.10;99.90;;;;;;5097054;28;20044;-67
2022/10/31 11:26:27;;;;;;;20.05;13.93;;;16.10;99.90;;;;;;5096871;28;20047;-67
2022/10/31 11:28:58;;;;;;;22.52;13.70;;;16.10;99.90;;;;;;5115018;28;20453;-68
2022/10/31 11:31:27;;;;;;;19.85;12.00;;;16.20;99.90;;;;;;5107338;27;20040;-67
2022/10/31 11:34:06;;;;;;;20.67;11.85;;;16.50;99.90;;;;;;5094541;28;20036;-68
2022/10/31 11:36:36;;;;;;;15.75;11.90;;;16.80;99.90;;;;;;5111168;28;20044;-68
2022/10/31 11:39:04;;;;;;;;;;;16.90;99.90;;;;;;5110493;27;20402;-69
2022/10/31 11:41:42;;;;;;;16.30;10.43;;;17.00;99.90;;;;;;5135422;27;19994;-68
2022/10/31 11:44:30;;;;;;;16.40;10.80;;;16.90;99.90;;;;;;5116561;27;20096;-69
2022/10/31 11:47:02;;;;;;;15.38;9.57;;;16.70;99.90;;;;;;5116497;27;20065;-68
2022/10/31 11:49:41;;;;;;;18.48;9.90;;;16.80;99.90;;;;;;5123360;27;20036;-67
2022/10/31 11:52:20;;;;;;;15.02;8.85;;;16.90;99.90;;;;;;5097355;28;20097;-69
2022/10/31 11:55:14;;;;;;;14.52;9.70;;;16.90;99.90;;;;;;5114200;27;20043;-68
2022/10/31 11:57:49;;;;;;;15.68;9.20;;;16.70;99.90;;;;;;5116812;27;20031;-68
2022/10/31 12:00:26;;;;;;;13.55;8.75;;;16.40;99.90;;;;;;5099339;27;20050;-68
2022/10/31 12:03:26;;;;;;;16.45;10.02;;;16.30;99.90;;;;;;5114502;27;20176;-68
2022/10/31 12:06:04;;;;;;;16.20;9.55;;;16.10;99.90;;;;;;5116509;27;20372;-68
2022/10/31 12:08:32;;;;;;;15.05;9.60;;;16.00;99.90;;;;;;5116480;27;20515;-68
2022/10/31 12:11:11;;;;;;;21.33;10.63;;;15.90;99.90;;;;;;5116255;27;20123;-69
2022/10/31 12:14:05;;;;;;;14.87;10.73;;;15.80;99.90;;;;;;5099105;27;20039;-68
2022/10/31 12:17:03;;;;;;;17.65;11.82;;;15.80;99.90;;;;;;5099188;27;20035;-67
2022/10/31 12:20:10;;;;;;;16.08;10.25;;;15.80;99.90;;;;;;5133836;27;20585;-69
2022/10/31 12:23:00;;;;;;;13.18;9.88;;;15.80;99.90;;;;;;5083864;27;20046;-68
2022/10/31 12:26:04;;;;;;;21.08;11.20;;;15.80;99.90;;;;;;5127610;27;20071;-69
2022/10/31 12:28:50;;;;;;;18.30;11.73;;;15.90;99.90;;;;;;5014575;28;20056;-68
2022/10/31 12:31:50;;;;;;;15.98;10.57;;;16.00;99.90;;;;;;5030848;28;20069;-68
2022/10/31 12:34:50;;;;;;;15.82;10.80;;;16.10;99.90;;;;;;5055596;27;20117;-67
2022/10/31 12:37:38;;;;;;;24.73;18.25;;;16.10;99.90;;;;;;5138469;27;20054;-68
2022/10/31 12:40:06;;;;;;;14.93;10.32;;;16.20;99.90;;;;;;5095928;28;20082;-68
2022/10/31 12:42:54;;;;;;;14.20;9.65;;;16.20;99.90;;;;;;5113510;28;20048;-68
2022/10/31 12:45:40;;;;;;;17.73;10.95;;;16.20;99.90;;;;;;5127623;27;20492;-68
2022/10/31 12:48:33;;;;;;;13.15;10.43;;;16.10;99.90;;;;;;5133974;27;20039;-68
2022/10/31 12:51:13;;;;;;;17.60;11.32;;;16.00;99.90;;;;;;5134097;27;20047;-68
2022/10/31 12:53:54;;;;;;;17.90;11.07;;;16.00;99.90;;;;;;5133948;27;20035;-68
2022/10/31 12:56:43;;;;;;;14.90;10.57;;;16.00;99.90;;;;;;5133686;27;20042;-68
2022/10/31 12:59:28;;;;;;;15.65;9.85;;;16.00;99.90;;;;;;5115924;27;20042;-68